Time;durP1;ratioP1;P1;durP2;ratioP2;P2;SDS_P1;SDS_P2;PMS_P1;PMS_P2;Temp;Humidity;BMP_temperature;BMP_pressure;BME280_temperature;BME280_humidity;BME280_pressure;Samples;Min_cycle;Max_cycle;Signal;HPM_P1;HPM_P2
2022/06/19 00:01:14;;;;;;;1999.90;999.90;;;23.90;99.90;;;;;;4953870;29;20078;-74
2022/06/19 00:03:50;;;;;;;1999.90;999.90;;;23.90;99.90;;;;;;4948486;29;20023;-74
2022/06/19 00:06:16;;;;;;;1999.90;999.90;;;23.80;99.90;;;;;;4955554;29;20026;-74
2022/06/19 00:08:43;;;;;;;1999.90;999.90;;;23.70;99.90;;;;;;4955810;29;20085;-80
2022/06/19 00:11:14;;;;;;;1999.90;999.90;;;23.60;99.90;;;;;;4950448;29;20555;-81
2022/06/19 00:13:40;;;;;;;1999.90;999.90;;;23.60;99.90;;;;;;4955941;29;20026;-75
2022/06/19 00:16:05;;;;;;;1999.90;999.90;;;23.50;99.90;;;;;;4955573;29;20038;-74
2022/06/19 00:18:31;;;;;;;1999.90;999.90;;;23.40;99.90;;;;;;4955866;29;20035;-74
2022/06/19 00:20:57;;;;;;;1999.90;999.90;;;23.40;99.90;;;;;;4955348;29;20027;-81
2022/06/19 00:23:22;;;;;;;1999.90;999.90;;;23.30;99.90;;;;;;4955667;29;20509;-74
2022/06/19 00:25:48;;;;;;;1999.90;999.90;;;23.20;99.90;;;;;;4955550;29;20031;-74
2022/06/19 00:28:14;;;;;;;1999.90;999.90;;;23.20;99.90;;;;;;4954554;28;20148;-75
2022/06/19 00:30:40;;;;;;;1999.90;999.90;;;23.20;99.90;;;;;;4955724;29;20094;-75
2022/06/19 00:33:06;;;;;;;1999.90;999.90;;;23.20;99.90;;;;;;4938303;29;20131;-80
2022/06/19 00:35:32;;;;;;;1999.90;999.90;;;23.20;99.90;;;;;;4935893;29;20023;-81
2022/06/19 00:37:58;;;;;;;1999.90;999.90;;;23.20;99.90;;;;;;4950867;29;20033;-75
2022/06/19 00:40:26;;;;;;;1999.90;999.90;;;23.20;99.90;;;;;;4938243;29;20037;-80
2022/06/19 00:42:52;;;;;;;1999.90;999.90;;;23.20;99.90;;;;;;4947655;29;20031;-75
2022/06/19 00:45:40;;;;;;;1999.90;999.90;;;23.20;99.90;;;;;;4947113;29;20023;-81
2022/06/19 00:48:16;;;;;;;1999.90;999.90;;;23.10;99.90;;;;;;4953032;29;20024;-74
2022/06/19 00:50:44;;;;;;;1999.90;999.90;;;23.10;99.90;;;;;;4934888;29;20031;-74
2022/06/19 00:53:16;;;;;;;1999.90;999.90;;;23.10;99.90;;;;;;4953820;29;20510;-74
2022/06/19 00:55:45;;;;;;;1999.90;999.90;;;23.10;99.90;;;;;;4951342;29;20479;-74
2022/06/19 00:58:30;;;;;;;1999.90;999.90;;;23.00;99.90;;;;;;4931101;29;20024;-74
2022/06/19 01:00:59;;;;;;;1999.90;999.90;;;23.00;99.90;;;;;;4972947;29;20518;-74
2022/06/19 01:03:35;;;;;;;1999.90;999.90;;;23.00;99.90;;;;;;4938402;29;20036;-81
2022/06/19 01:06:01;;;;;;;1999.90;999.90;;;23.00;99.90;;;;;;4937300;29;20105;-81
2022/06/19 01:08:27;;;;;;;1999.90;999.90;;;23.00;99.90;;;;;;4955110;29;20027;-80
2022/06/19 01:10:53;;;;;;;1999.90;999.90;;;23.10;99.90;;;;;;4949120;29;20022;-81
2022/06/19 01:13:23;;;;;;;1999.90;999.90;;;23.10;99.90;;;;;;4954485;29;20066;-80
2022/06/19 01:15:49;;;;;;;1999.90;999.90;;;23.20;99.90;;;;;;4954251;29;20122;-74
2022/06/19 01:18:15;;;;;;;1999.90;999.90;;;23.20;99.90;;;;;;4954797;29;20035;-80
2022/06/19 01:20:42;;;;;;;1999.90;999.90;;;23.30;99.90;;;;;;4954541;29;20032;-74
2022/06/19 01:23:18;;;;;;;1999.90;999.90;;;23.30;99.90;;;;;;4954530;29;20086;-79
2022/06/19 01:25:44;;;;;;;1999.90;999.90;;;23.30;99.90;;;;;;4954384;29;20079;-74
2022/06/19 01:31:09;;;;;;;1999.90;999.90;;;23.30;99.90;;;;;;4954567;29;20138;-74
2022/06/19 01:33:56;;;;;;;1999.90;999.90;;;23.30;99.90;;;;;;4937185;29;20038;-77
2022/06/19 01:36:22;;;;;;;1999.90;999.90;;;23.20;99.90;;;;;;4953778;29;20023;-74
2022/06/19 01:38:50;;;;;;;1999.90;999.90;;;23.10;99.90;;;;;;4933092;29;20407;-74
2022/06/19 01:41:30;;;;;;;1999.90;999.90;;;23.10;99.90;;;;;;4958574;29;20491;-76
2022/06/19 01:43:56;;;;;;;1999.90;999.90;;;23.10;99.90;;;;;;4951306;29;20055;-77
2022/06/19 01:46:24;;;;;;;1999.90;999.90;;;23.10;99.90;;;;;;4952921;29;20498;-74
2022/06/19 01:48:50;;;;;;;1999.90;999.90;;;23.00;99.90;;;;;;4940161;29;20439;-77
2022/06/19 01:51:16;;;;;;;1999.90;999.90;;;23.00;99.90;;;;;;4957879;29;20102;-77
2022/06/19 01:54:03;;;;;;;1999.90;999.90;;;22.90;99.90;;;;;;4958401;29;20136;-77
2022/06/19 01:56:29;;;;;;;1999.90;999.90;;;23.00;99.90;;;;;;4941099;29;20031;-74
2022/06/19 01:59:01;;;;;;;1999.90;999.90;;;23.00;99.90;;;;;;4958322;29;20035;-77
2022/06/19 02:01:28;;;;;;;1999.90;999.90;;;23.10;99.90;;;;;;4958388;29;20390;-77
2022/06/19 02:03:57;;;;;;;1999.90;999.90;;;23.10;99.90;;;;;;4974350;29;20031;-79
2022/06/19 02:06:27;;;;;;;1999.90;999.90;;;23.10;99.90;;;;;;4960785;29;20033;-79
2022/06/19 02:08:54;;;;;;;1999.90;999.90;;;23.00;99.90;;;;;;4958140;29;20023;-74
2022/06/19 02:11:21;;;;;;;1999.90;999.90;;;23.00;99.90;;;;;;4951840;29;20020;-79
2022/06/19 02:13:48;;;;;;;1999.90;999.90;;;23.00;99.90;;;;;;4940837;29;20061;-74
2022/06/19 02:16:18;;;;;;;1999.90;999.90;;;23.00;99.90;;;;;;4957780;29;20035;-78
2022/06/19 02:18:47;;;;;;;1999.90;999.90;;;22.90;99.90;;;;;;4940539;29;20066;-74
2022/06/19 02:21:18;;;;;;;1999.90;999.90;;;22.80;99.90;;;;;;4956589;29;20081;-78
2022/06/19 02:23:44;;;;;;;1999.90;999.90;;;22.80;99.90;;;;;;4952301;29;20027;-79
2022/06/19 02:26:11;;;;;;;1999.90;999.90;;;22.80;99.90;;;;;;4958007;29;20102;-74
2022/06/19 02:28:39;;;;;;;1999.90;999.90;;;22.70;99.90;;;;;;4957729;29;20027;-74
2022/06/19 02:31:06;;;;;;;1999.90;999.90;;;22.70;99.90;;;;;;4957876;29;20029;-79
2022/06/19 02:33:37;;;;;;;1999.90;999.90;;;22.70;99.90;;;;;;4957411;29;20027;-78
2022/06/19 02:36:32;;;;;;;1999.90;999.90;;;22.60;99.90;;;;;;4956610;29;20086;-74
2022/06/19 02:39:15;;;;;;;1999.90;999.90;;;22.60;99.90;;;;;;4952497;29;20035;-74
2022/06/19 02:41:48;;;;;;;1999.90;999.90;;;22.50;99.90;;;;;;4954628;29;20024;-78
2022/06/19 02:44:14;;;;;;;1999.90;999.90;;;22.50;99.90;;;;;;4940424;29;20384;-74
2022/06/19 02:46:39;;;;;;;1999.90;999.90;;;22.50;99.90;;;;;;4952149;29;20034;-79
2022/06/19 02:49:05;;;;;;;1999.90;999.90;;;22.40;99.90;;;;;;4957471;29;20038;-79
2022/06/19 02:51:30;;;;;;;1999.90;999.90;;;22.40;99.90;;;;;;4956181;28;20102;-78
2022/06/19 02:53:58;;;;;;;1999.90;999.90;;;22.40;99.90;;;;;;4940016;29;20043;-74
2022/06/19 02:56:23;;;;;;;1999.90;999.90;;;22.40;99.90;;;;;;4957581;29;20027;-78
2022/06/19 02:58:49;;;;;;;1999.90;999.90;;;22.40;99.90;;;;;;4957363;29;20085;-79
2022/06/19 03:01:15;;;;;;;1999.90;999.90;;;22.40;99.90;;;;;;4939826;29;20139;-79
2022/06/19 03:03:40;;;;;;;1999.90;999.90;;;22.40;99.90;;;;;;4949532;29;20031;-74
2022/06/19 03:06:07;;;;;;;1999.90;999.90;;;22.30;99.90;;;;;;4956770;29;20027;-74
2022/06/19 03:08:32;;;;;;;1999.90;999.90;;;22.30;99.90;;;;;;4957337;29;20035;-78
2022/06/19 03:10:58;;;;;;;1999.90;999.90;;;22.20;99.90;;;;;;4951200;29;20031;-74
2022/06/19 03:13:25;;;;;;;1999.90;999.90;;;22.20;99.90;;;;;;4957603;29;20106;-77
2022/06/19 03:16:07;;;;;;;1999.90;999.90;;;22.20;99.90;;;;;;4937686;29;20491;-73
2022/06/19 03:18:34;;;;;;;1999.90;999.90;;;22.20;99.90;;;;;;4948014;29;20028;-74
2022/06/19 03:21:00;;;;;;;1999.90;999.90;;;22.20;99.90;;;;;;4956485;29;20058;-78
2022/06/19 03:23:26;;;;;;;1999.90;999.90;;;22.10;99.90;;;;;;4956556;29;20034;-74
2022/06/19 03:25:52;;;;;;;1999.90;999.90;;;22.10;99.90;;;;;;4956691;29;20019;-79
2022/06/19 03:28:18;;;;;;;1999.90;999.90;;;22.10;99.90;;;;;;4939411;29;20446;-74
2022/06/19 03:30:43;;;;;;;1999.90;999.90;;;22.00;99.90;;;;;;4956786;29;20023;-74
2022/06/19 03:33:09;;;;;;;1999.90;999.90;;;22.00;99.90;;;;;;4956491;29;20085;-74
2022/06/19 03:35:35;;;;;;;1999.90;999.90;;;22.00;99.90;;;;;;4956913;29;20118;-79
2022/06/19 03:38:00;;;;;;;1999.90;999.90;;;21.90;99.90;;;;;;4950609;29;20098;-74
2022/06/19 03:40:26;;;;;;;1999.90;999.90;;;21.90;99.90;;;;;;4956228;29;20372;-78
2022/06/19 03:42:51;;;;;;;1999.90;999.90;;;21.80;99.90;;;;;;4956404;29;20032;-74
2022/06/19 03:45:17;;;;;;;1999.90;999.90;;;21.80;99.90;;;;;;4956296;29;20026;-74
2022/06/19 03:47:43;;;;;;;1999.90;999.90;;;21.80;99.90;;;;;;4950104;29;20039;-78
2022/06/19 03:50:14;;;;;;;1999.90;999.90;;;21.80;99.90;;;;;;4956206;29;20051;-74
2022/06/19 03:52:40;;;;;;;1999.90;999.90;;;21.70;99.90;;;;;;4956006;29;20570;-78
2022/06/19 03:55:07;;;;;;;1999.90;999.90;;;21.80;99.90;;;;;;4938994;29;20058;-74
2022/06/19 03:57:32;;;;;;;1999.90;999.90;;;21.80;99.90;;;;;;4956638;29;20043;-74
2022/06/19 03:59:58;;;;;;;1999.90;999.90;;;21.80;99.90;;;;;;4954095;29;20487;-79
2022/06/19 04:02:24;;;;;;;1999.90;999.90;;;21.80;99.90;;;;;;4948350;28;20047;-78
2022/06/19 04:04:50;;;;;;;1999.90;999.90;;;21.70;99.90;;;;;;4956300;29;20062;-74
2022/06/19 04:07:16;;;;;;;1999.90;999.90;;;21.60;99.90;;;;;;4955758;29;20114;-78
2022/06/19 04:09:43;;;;;;;1999.90;999.90;;;21.60;99.90;;;;;;4956266;29;20467;-74
2022/06/19 04:12:09;;;;;;;1999.90;999.90;;;21.50;99.90;;;;;;4950147;29;20510;-78
2022/06/19 04:14:36;;;;;;;1999.90;999.90;;;21.50;99.90;;;;;;4955387;29;20050;-74
2022/06/19 04:17:03;;;;;;;1999.90;999.90;;;21.40;99.90;;;;;;4955605;29;20023;-74
2022/06/19 04:19:29;;;;;;;1999.90;999.90;;;21.40;99.90;;;;;;4955894;29;20483;-74
2022/06/19 04:21:55;;;;;;;1999.90;999.90;;;21.40;99.90;;;;;;4955137;29;20023;-78
2022/06/19 04:24:21;;;;;;;1999.90;999.90;;;21.30;99.90;;;;;;4955561;29;20035;-74
2022/06/19 04:26:47;;;;;;;1999.90;999.90;;;21.30;99.90;;;;;;4955474;29;20513;-78
2022/06/19 04:29:13;;;;;;;1999.90;999.90;;;21.30;99.90;;;;;;4955621;29;20031;-74
2022/06/19 04:31:39;;;;;;;1999.90;999.90;;;21.30;99.90;;;;;;4955280;29;20038;-78
2022/06/19 04:34:05;;;;;;;1999.90;999.90;;;21.30;99.90;;;;;;4956767;29;20063;-74
2022/06/19 04:36:31;;;;;;;1999.90;999.90;;;21.30;99.90;;;;;;4955362;29;20055;-78
2022/06/19 04:38:58;;;;;;;1999.90;999.90;;;21.40;99.90;;;;;;4949226;29;20058;-78
2022/06/19 04:41:27;;;;;;;1999.90;999.90;;;21.50;99.90;;;;;;4955407;29;20050;-74
2022/06/19 04:43:55;;;;;;;1999.90;999.90;;;21.50;99.90;;;;;;4934700;29;20038;-78
2022/06/19 04:46:21;;;;;;;1999.90;999.90;;;21.50;99.90;;;;;;4938541;29;20106;-73
2022/06/19 04:48:48;;;;;;;1999.90;999.90;;;21.50;99.90;;;;;;4955248;29;20522;-74
2022/06/19 04:51:14;;;;;;;1999.90;999.90;;;21.60;99.90;;;;;;4937839;29;20023;-74
2022/06/19 04:53:40;;;;;;;1999.90;999.90;;;21.60;99.90;;;;;;4927346;29;20642;-78
2022/06/19 04:56:07;;;;;;;1999.90;999.90;;;21.60;99.90;;;;;;4936089;29;20067;-78
2022/06/19 04:58:34;;;;;;;1999.90;999.90;;;21.60;99.90;;;;;;4935936;29;20028;-74
2022/06/19 05:01:05;;;;;;;1999.90;999.90;;;21.70;99.90;;;;;;4935370;29;20023;-78
2022/06/19 05:03:30;;;;;;;1999.90;999.90;;;21.70;99.90;;;;;;4935243;29;20451;-78
2022/06/19 05:05:56;;;;;;;1999.90;999.90;;;21.70;99.90;;;;;;4935608;29;20107;-78
2022/06/19 05:08:22;;;;;;;1999.90;999.90;;;21.80;99.90;;;;;;4936029;29;20403;-78
2022/06/19 05:10:48;;;;;;;1999.90;999.90;;;21.80;99.90;;;;;;4918225;29;20027;-78
2022/06/19 05:13:19;;;;;;;1999.90;999.90;;;21.80;99.90;;;;;;4935046;29;20517;-78
2022/06/19 05:15:45;;;;;;;1999.90;999.90;;;21.90;99.90;;;;;;4935379;29;20028;-74
2022/06/19 05:18:11;;;;;;;1999.90;999.90;;;22.00;99.90;;;;;;4935611;29;20031;-78
2022/06/19 05:20:37;;;;;;;1999.90;999.90;;;22.00;99.90;;;;;;4918581;29;20038;-77
2022/06/19 05:23:04;;;;;;;1999.90;999.90;;;22.10;99.90;;;;;;4927866;29;20038;-74
2022/06/19 05:25:30;;;;;;;1999.90;999.90;;;22.10;99.90;;;;;;4933357;29;20020;-74
2022/06/19 05:27:56;;;;;;;1999.90;999.90;;;22.20;99.90;;;;;;4935343;29;20514;-74
2022/06/19 05:30:21;;;;;;;1999.90;999.90;;;22.40;99.90;;;;;;4935573;29;20019;-73
2022/06/19 05:32:47;;;;;;;1999.90;999.90;;;22.50;99.90;;;;;;4935613;29;20028;-78
2022/06/19 05:35:13;;;;;;;1999.90;999.90;;;22.50;99.90;;;;;;4935510;29;20028;-78
2022/06/19 05:37:39;;;;;;;1999.90;999.90;;;22.60;99.90;;;;;;4936352;29;20111;-74
2022/06/19 05:40:05;;;;;;;1999.90;999.90;;;22.70;99.90;;;;;;4938269;29;20024;-74
2022/06/19 05:42:31;;;;;;;1999.90;999.90;;;22.80;99.90;;;;;;4918615;29;20495;-78
2022/06/19 05:44:57;;;;;;;1999.90;999.90;;;22.80;99.90;;;;;;4935579;29;20031;-78
2022/06/19 05:47:23;;;;;;;1999.90;999.90;;;22.80;99.90;;;;;;4935210;29;20032;-78
2022/06/19 05:49:49;;;;;;;1999.90;999.90;;;22.90;99.90;;;;;;4935189;29;20087;-78
2022/06/19 05:52:20;;;;;;;1999.90;999.90;;;22.90;99.90;;;;;;4935237;29;20111;-78
2022/06/19 05:54:46;;;;;;;1999.90;999.90;;;22.90;99.90;;;;;;4937045;29;20039;-74
2022/06/19 05:57:12;;;;;;;1999.90;999.90;;;22.90;99.90;;;;;;4954885;29;20102;-79
2022/06/19 05:59:38;;;;;;;1999.90;999.90;;;22.90;99.90;;;;;;4954237;29;20027;-74
2022/06/19 06:02:05;;;;;;;1999.90;999.90;;;22.90;99.90;;;;;;4953733;29;20027;-74
2022/06/19 06:04:31;;;;;;;1999.90;999.90;;;22.90;99.90;;;;;;4954426;29;20024;-79
2022/06/19 06:06:56;;;;;;;1999.90;999.90;;;23.10;99.90;;;;;;4954164;29;20075;-80
2022/06/19 06:09:22;;;;;;;1999.90;999.90;;;23.10;99.90;;;;;;4954255;29;20027;-80
2022/06/19 06:11:48;;;;;;;1999.90;999.90;;;23.20;99.90;;;;;;4953997;29;20394;-79
2022/06/19 06:14:13;;;;;;;1999.90;999.90;;;23.30;99.90;;;;;;4954624;29;20027;-79
2022/06/19 06:16:39;;;;;;;1999.90;999.90;;;23.40;99.90;;;;;;4954373;29;20078;-74
2022/06/19 06:19:04;;;;;;;1999.90;999.90;;;23.40;99.90;;;;;;4954138;29;20031;-74
2022/06/19 06:21:30;;;;;;;1999.90;999.90;;;23.30;99.90;;;;;;4953999;29;20074;-79
2022/06/19 06:23:56;;;;;;;1999.90;999.90;;;23.30;99.90;;;;;;4953749;29;20053;-80
2022/06/19 06:26:26;;;;;;;1999.90;999.90;;;23.20;99.90;;;;;;4957562;28;20152;-79
2022/06/19 06:28:54;;;;;;;1999.90;999.90;;;23.10;99.90;;;;;;4958204;29;20478;-79
2022/06/19 06:31:20;;;;;;;1999.90;999.90;;;23.10;99.90;;;;;;4957800;29;20062;-79
2022/06/19 06:33:46;;;;;;;1999.90;999.90;;;22.90;99.90;;;;;;4957552;29;20451;-79
2022/06/19 06:36:13;;;;;;;1999.90;999.90;;;22.80;99.90;;;;;;4957714;29;20027;-74
2022/06/19 06:38:39;;;;;;;1999.90;999.90;;;22.80;99.90;;;;;;4956692;29;20032;-74
2022/06/19 06:41:07;;;;;;;1999.90;999.90;;;22.80;99.90;;;;;;4940239;29;20061;-74
2022/06/19 06:43:42;;;;;;;1999.90;999.90;;;22.80;99.90;;;;;;4957254;29;20178;-81
2022/06/19 06:46:13;;;;;;;1999.90;999.90;;;22.80;99.90;;;;;;4957386;29;20022;-75
2022/06/19 06:48:40;;;;;;;1999.90;999.90;;;22.80;99.90;;;;;;4945659;29;20034;-85
2022/06/19 06:51:08;;;;;;;1999.90;999.90;;;23.10;99.90;;;;;;4957260;29;20415;-84
2022/06/19 06:53:33;;;;;;;1999.90;999.90;;;23.40;99.90;;;;;;4957312;29;20055;-74
2022/06/19 06:55:59;;;;;;;1999.90;999.90;;;23.60;99.90;;;;;;4957483;29;20094;-74
2022/06/19 06:58:25;;;;;;;1999.90;999.90;;;23.70;99.90;;;;;;4957332;29;20027;-88
2022/06/19 07:00:51;;;;;;;1999.90;999.90;;;23.70;99.90;;;;;;4956961;29;20035;-79
2022/06/19 07:03:16;;;;;;;1999.90;999.90;;;23.40;99.90;;;;;;4957072;29;20027;-85
2022/06/19 07:05:42;;;;;;;1999.90;999.90;;;23.20;99.90;;;;;;4939749;29;20023;-86
2022/06/19 07:08:07;;;;;;;1999.90;999.90;;;23.00;99.90;;;;;;4956570;29;20027;-85
2022/06/19 07:10:33;;;;;;;1999.90;999.90;;;22.90;99.90;;;;;;4959766;29;20074;-85
2022/06/19 07:13:00;;;;;;;1999.90;999.90;;;23.00;99.90;;;;;;4939515;29;20122;-85
2022/06/19 07:15:26;;;;;;;1999.90;999.90;;;23.00;99.90;;;;;;4956274;29;20032;-85
2022/06/19 07:17:52;;;;;;;1999.90;999.90;;;23.00;99.90;;;;;;4956886;29;20043;-87
2022/06/19 07:20:19;;;;;;;1999.90;999.90;;;23.30;99.90;;;;;;4956968;29;20027;-74
2022/06/19 07:22:45;;;;;;;1999.90;999.90;;;23.40;99.90;;;;;;4956315;29;20493;-86
2022/06/19 07:25:16;;;;;;;1999.90;999.90;;;23.60;99.90;;;;;;4956765;29;20027;-74
2022/06/19 07:27:42;;;;;;;1999.90;999.90;;;23.70;99.90;;;;;;4956621;29;20047;-74
2022/06/19 07:30:09;;;;;;;1999.90;999.90;;;23.80;99.90;;;;;;4939434;29;20031;-85
2022/06/19 07:32:34;;;;;;;1999.90;999.90;;;23.90;99.90;;;;;;4939440;29;20066;-74
2022/06/19 07:35:00;;;;;;;1999.90;999.90;;;24.10;99.90;;;;;;4956770;29;20068;-82
2022/06/19 07:37:26;;;;;;;1999.90;999.90;;;24.10;99.90;;;;;;4955597;28;20035;-74
2022/06/19 07:39:51;;;;;;;1999.90;999.90;;;23.80;99.90;;;;;;4955560;29;20058;-74
2022/06/19 07:42:17;;;;;;;1999.90;999.90;;;23.70;99.90;;;;;;4956439;29;20114;-85
2022/06/19 07:44:43;;;;;;;1999.90;999.90;;;23.40;99.90;;;;;;4956605;29;20036;-79
2022/06/19 07:50:10;;;;;;;1999.90;999.90;;;25.00;99.90;;;;;;4956131;29;20070;-78
2022/06/19 07:52:38;;;;;;;1999.90;999.90;;;25.10;99.90;;;;;;4955908;29;20027;-79
2022/06/19 07:55:05;;;;;;;1999.90;999.90;;;24.20;99.90;;;;;;4956374;29;20032;-77
2022/06/19 07:57:31;;;;;;;1999.90;999.90;;;23.60;99.90;;;;;;4956794;29;20032;-75
2022/06/19 07:59:56;;;;;;;1999.90;999.90;;;23.70;99.90;;;;;;4955455;29;20505;-74
2022/06/19 08:02:24;;;;;;;1999.90;999.90;;;24.60;99.90;;;;;;4955812;29;20046;-75
2022/06/19 08:04:50;;;;;;;1999.90;999.90;;;25.30;99.90;;;;;;4956213;29;20391;-74
2022/06/19 08:07:17;;;;;;;1999.90;999.90;;;25.70;99.90;;;;;;4938356;29;20031;-79
2022/06/19 08:09:42;;;;;;;1999.90;999.90;;;26.50;99.90;;;;;;4956132;29;20154;-78
2022/06/19 08:12:09;;;;;;;1999.90;999.90;;;26.50;99.90;;;;;;4955677;29;20098;-75
2022/06/19 08:14:35;;;;;;;1999.90;999.90;;;27.30;99.90;;;;;;4956145;29;20035;-81
2022/06/19 08:17:01;;;;;;;1999.90;999.90;;;27.30;99.90;;;;;;4947712;29;20027;-74
2022/06/19 08:19:27;;;;;;;1999.90;999.90;;;26.60;99.90;;;;;;4938381;29;20030;-77
2022/06/19 08:21:53;;;;;;;1999.90;999.90;;;26.70;99.90;;;;;;4955267;29;20027;-76
2022/06/19 08:24:19;;;;;;;1999.90;999.90;;;26.20;99.90;;;;;;4946492;29;20126;-74
2022/06/19 08:26:45;;;;;;;1999.90;999.90;;;26.50;99.90;;;;;;4955392;29;20439;-75
2022/06/19 08:29:11;;;;;;;1999.90;999.90;;;25.50;99.90;;;;;;4955485;29;20043;-77
2022/06/19 08:31:37;;;;;;;1999.90;999.90;;;25.30;99.90;;;;;;4947229;29;20055;-79
2022/06/19 08:34:03;;;;;;;1999.90;999.90;;;25.80;99.90;;;;;;4956333;29;20039;-79
2022/06/19 08:36:33;;;;;;;1999.90;999.90;;;26.30;99.90;;;;;;4955275;29;20023;-78
2022/06/19 08:39:02;;;;;;;1999.90;999.90;;;26.30;99.90;;;;;;4942453;29;20082;-74
2022/06/19 08:42:00;;;;;;;1999.90;999.90;;;26.70;99.90;;;;;;4938000;29;20034;-74
2022/06/19 08:44:52;;;;;;;1999.90;999.90;;;27.10;99.90;;;;;;4955202;29;20435;-74
2022/06/19 08:47:28;;;;;;;1999.90;999.90;;;27.30;99.90;;;;;;4955087;29;20026;-79
2022/06/19 08:50:14;;;;;;;1999.90;999.90;;;28.10;99.90;;;;;;4954373;29;20070;-75
2022/06/19 08:53:05;;;;;;;1999.90;999.90;;;27.80;99.90;;;;;;4954839;29;20051;-75
2022/06/19 08:55:54;;;;;;;1999.90;999.90;;;28.00;99.90;;;;;;4955231;29;20062;-78
2022/06/19 08:58:33;;;;;;;1999.90;999.90;;;28.40;99.90;;;;;;4954947;29;20455;-78
2022/06/19 09:01:04;;;;;;;1999.90;999.90;;;28.90;98.90;;;;;;4955165;29;20122;-75
2022/06/19 09:07:18;;;;;;;1999.90;999.90;;;30.30;96.50;;;;;;4925619;29;20031;-74
2022/06/19 09:09:55;;;;;;;1999.90;999.90;;;29.50;96.40;;;;;;4954992;29;20031;-75
2022/06/19 09:12:38;;;;;;;1999.90;999.90;;;29.60;97.00;;;;;;4950958;29;20078;-78
2022/06/19 09:15:10;;;;;;;1999.90;999.90;;;29.60;96.20;;;;;;4955100;29;20032;-79
2022/06/19 09:17:51;;;;;;;1999.90;999.90;;;29.40;96.10;;;;;;4954620;29;20027;-79
2022/06/19 09:20:47;;;;;;;1999.90;999.90;;;30.00;95.60;;;;;;4954575;29;20506;-78
2022/06/19 09:23:38;;;;;;;1999.90;999.90;;;29.40;96.20;;;;;;4954323;29;20019;-82
2022/06/19 09:26:17;;;;;;;1999.90;999.90;;;29.20;95.80;;;;;;4939265;29;20024;-81
2022/06/19 09:28:53;;;;;;;1999.90;999.90;;;29.10;96.30;;;;;;4952068;29;20047;-74
2022/06/19 09:31:42;;;;;;;1999.90;999.90;;;28.80;96.60;;;;;;4954601;29;20055;-75
2022/06/19 09:34:14;;;;;;;1999.90;999.90;;;28.60;97.00;;;;;;4954739;29;20039;-74
2022/06/19 09:36:44;;;;;;;1999.90;999.90;;;29.10;97.00;;;;;;4954393;29;20039;-75
2022/06/19 09:39:25;;;;;;;1999.90;999.90;;;29.20;96.30;;;;;;4942314;29;20118;-74
2022/06/19 09:42:06;;;;;;;1999.90;999.90;;;29.20;96.80;;;;;;4953716;29;20031;-75
2022/06/19 09:44:36;;;;;;;1999.90;999.90;;;29.40;96.10;;;;;;4954676;29;20027;-78
2022/06/19 09:47:24;;;;;;;1999.90;999.90;;;29.30;96.50;;;;;;4954579;29;20376;-74
2022/06/19 09:50:06;;;;;;;1999.90;999.90;;;29.30;96.00;;;;;;4954325;29;20019;-78
2022/06/19 09:52:55;;;;;;;1999.90;999.90;;;29.30;96.20;;;;;;4954432;29;20107;-76
2022/06/19 09:55:32;;;;;;;1999.90;999.90;;;29.40;96.20;;;;;;4954443;29;20508;-74
2022/06/19 09:58:23;;;;;;;1999.90;999.90;;;30.00;95.50;;;;;;4954218;29;20547;-74
2022/06/19 10:00:52;;;;;;;1999.90;999.90;;;30.60;94.60;;;;;;4956633;28;20034;-75
2022/06/19 10:03:36;;;;;;;1999.90;999.90;;;30.50;94.00;;;;;;4957938;29;20035;-80
2022/06/19 10:06:04;;;;;;;1999.90;999.90;;;30.10;94.50;;;;;;4957952;29;20044;-77
2022/06/19 10:08:36;;;;;;;1999.90;999.90;;;30.10;94.60;;;;;;4958179;29;20387;-79
2022/06/19 10:11:12;;;;;;;1999.90;999.90;;;30.20;94.60;;;;;;4957735;29;20024;-77
2022/06/19 10:14:14;;;;;;;1999.90;999.90;;;30.10;93.90;;;;;;4957509;29;20479;-75
2022/06/19 10:16:50;;;;;;;1999.90;999.90;;;29.20;94.30;;;;;;4917843;29;20134;-79
2022/06/19 10:19:38;;;;;;;1999.90;999.90;;;29.10;94.80;;;;;;4957675;29;20034;-78
2022/06/19 10:22:37;;;;;;;1999.90;999.90;;;29.50;94.50;;;;;;4956912;29;20398;-74
2022/06/19 10:25:08;;;;;;;1999.90;999.90;;;29.90;94.10;;;;;;4957808;29;20042;-75
2022/06/19 10:27:58;;;;;;;1999.90;999.90;;;29.60;94.20;;;;;;4957724;29;20023;-75
2022/06/19 10:31:01;;;;;;;1999.90;999.90;;;29.60;94.20;;;;;;4940629;29;20054;-76
2022/06/19 10:33:36;;;;;;;1999.90;999.90;;;29.20;94.60;;;;;;4957672;29;20436;-75
2022/06/19 10:36:37;;;;;;;1999.90;999.90;;;28.00;96.20;;;;;;4957584;29;20054;-79
2022/06/19 10:39:02;;;;;;;1999.90;999.90;;;28.30;96.00;;;;;;4957625;29;20031;-75
2022/06/19 10:42:00;;;;;;;1999.90;999.90;;;27.50;96.40;;;;;;4956982;29;20027;-74
2022/06/19 10:44:56;;;;;;;1999.90;999.90;;;26.30;98.50;;;;;;4957470;29;20035;-76
2022/06/19 10:47:31;;;;;;;1999.90;999.90;;;25.80;99.60;;;;;;4940296;29;20086;-75
2022/06/19 10:50:05;;;;;;;1999.90;999.90;;;25.40;99.90;;;;;;4957584;29;20051;-75
2022/06/19 10:52:53;;;;;;;1999.90;999.90;;;25.10;99.90;;;;;;4957120;29;20511;-76
2022/06/19 10:55:33;;;;;;;1999.90;999.90;;;25.30;99.90;;;;;;4939963;28;20058;-77
2022/06/19 10:58:14;;;;;;;1999.90;999.90;;;24.60;99.90;;;;;;4957197;29;20023;-77
2022/06/19 11:00:41;;;;;;;1999.90;999.90;;;24.60;99.90;;;;;;4957086;29;20031;-78
2022/06/19 11:06:22;;;;;;;1999.90;999.90;;;24.20;99.90;;;;;;4957196;29;20034;-74
2022/06/19 11:08:55;;;;;;;1999.90;999.90;;;24.20;99.90;;;;;;4969265;29;20064;-72
2022/06/19 11:11:23;;;;;;;1999.90;999.90;;;24.00;99.90;;;;;;4955867;28;20047;-75
2022/06/19 11:13:54;;;;;;;1999.90;999.90;;;23.60;99.90;;;;;;4957092;29;20390;-79
2022/06/19 11:16:20;;;;;;;1999.90;999.90;;;23.90;99.90;;;;;;4956799;29;20031;-80
2022/06/19 11:18:48;;;;;;;1999.90;999.90;;;23.80;99.90;;;;;;4956895;29;20023;-78
2022/06/19 11:21:19;;;;;;;1999.90;999.90;;;24.00;99.90;;;;;;4956567;29;20031;-78
2022/06/19 11:23:48;;;;;;;1999.90;999.90;;;24.20;99.90;;;;;;4956708;29;20023;-77
2022/06/19 11:26:21;;;;;;;1999.90;999.90;;;24.40;99.90;;;;;;4956722;29;20029;-75
2022/06/19 11:29:05;;;;;;;1999.90;999.90;;;24.90;99.90;;;;;;4956711;29;20023;-76
2022/06/19 11:31:36;;;;;;;1999.90;999.90;;;24.40;99.90;;;;;;4956369;29;20027;-74
2022/06/19 11:37:10;;;;;;;1999.90;999.90;;;24.40;99.90;;;;;;4956439;29;20534;-76
2022/06/19 11:39:40;;;;;;;1999.90;999.90;;;24.10;99.90;;;;;;4956525;29;20031;-75
2022/06/19 11:42:32;;;;;;;1999.90;999.90;;;24.60;99.90;;;;;;4955683;29;20041;-74
2022/06/19 11:45:12;;;;;;;1999.90;999.90;;;24.30;99.90;;;;;;4954337;29;20390;-77
2022/06/19 11:47:45;;;;;;;1999.90;999.90;;;24.60;99.90;;;;;;4956222;29;20035;-78
2022/06/19 11:50:18;;;;;;;1999.90;999.90;;;26.30;99.90;;;;;;4956630;29;20514;-77
2022/06/19 11:52:55;;;;;;;;;;;26.90;99.90;;;;;;4956616;29;20170;-77
2022/06/19 11:55:31;;;;;;;1999.90;999.90;;;26.60;99.90;;;;;;4956334;29;19926;-76
2022/06/19 11:58:01;;;;;;;1999.90;999.90;;;25.90;99.90;;;;;;4956153;29;20023;-75
2022/06/19 12:00:33;;;;;;;1999.90;999.90;;;25.30;99.90;;;;;;4955117;29;20023;-76
2022/06/19 12:03:18;;;;;;;1999.90;999.90;;;25.90;99.90;;;;;;4957327;29;20031;-75
2022/06/19 12:05:53;;;;;;;1999.90;999.90;;;25.90;99.90;;;;;;4956619;29;20023;-76
2022/06/19 12:08:25;;;;;;;1999.90;999.90;;;26.00;99.90;;;;;;4956109;29;20023;-76
2022/06/19 12:11:01;;;;;;;1999.90;999.90;;;26.00;99.90;;;;;;4955880;29;20031;-75
2022/06/19 12:13:30;;;;;;;1999.90;999.90;;;26.40;99.90;;;;;;4955983;29;20042;-78
2022/06/19 12:16:19;;;;;;;1999.90;999.90;;;26.50;99.90;;;;;;4953725;29;20031;-75
2022/06/19 12:18:46;;;;;;;1999.90;999.90;;;25.70;99.90;;;;;;4955810;29;20028;-79
2022/06/19 12:21:37;;;;;;;1999.90;999.90;;;25.40;99.90;;;;;;4955560;29;20038;-75
2022/06/19 12:24:13;;;;;;;1999.90;999.90;;;25.20;99.90;;;;;;4953488;28;20126;-77
2022/06/19 12:26:48;;;;;;;1999.90;999.90;;;25.50;99.90;;;;;;4949870;29;20024;-78
2022/06/19 12:29:22;;;;;;;1999.90;999.90;;;26.60;99.70;;;;;;4955601;29;20020;-75
2022/06/19 12:31:49;;;;;;;1999.90;999.90;;;27.50;98.30;;;;;;4955307;29;20023;-79